Terminal Aerodrome Forecast
Issued by NWS

Home | Current Version | Previous Version | Graphics & Text | Print | Product List | Glossary On
Versions: 1 2 3 4 5 6 7 8 9 10 11 12 13 14 15 16 17 18 19 20 21
606
FTUS43 KFGF 032339
TAFBJI
TAF
KBJI 032339Z 0400/0424 27004KT P6SM BKN080
     FM040500 24005KT 2SM -SN OVC020
     FM041200 29005KT 5SM -SN BR OVC012
     FM041500 30007KT P6SM BKN015=

USA.gov is the U.S. government's official web portal to all federal, state and local government web resources and services.